Flight Track Log - Related Links

Times and Time Zones

All times are in EDT time to prevent confusion due to time zone crossing. See the SWA494 flight status page for this flight to view local times or setup timezone preferences in your user account.

Time Position Orientation Groundspeed Altitude Reporting Facility
EDT Latitude Longitude Course Direction KTS MPH feet Rate Location/Type
Tue 06:11:03 PM 41.8167 -87.7167 41° Northeast 250 288 3,600  Level Chicago TRACON
Tue 06:12:03 PM 41.7500 -87.7333 191° South 242 278 6,300 2,685 Climbing Chicago TRACON
Tue 06:14:04 PM 41.6286 -87.8394 213° Southwest 305 351 11,700 2,885 Climbing Chicago Center
Tue 06:15:06 PM 41.5478 -87.9086 213° Southwest 340 391 15,100 3,145 Climbing Chicago Center
Tue 06:16:08 PM 41.4642 -87.9808 213° Southwest 355 409 18,200 3,000 Climbing Chicago Center
Tue 06:17:10 PM 41.3742 -88.0428 207° Southwest 360 414 21,300 2,448 Climbing Chicago Center
Tue 06:18:13 PM 41.2631 -88.0786 194° South 393 452 23,300 2,064 Climbing Chicago Center
Tue 06:19:15 PM 41.1528 -88.1117 193° South 403 464 25,600 2,177 Climbing Chicago Center
Tue 06:20:17 PM 41.0175 -88.1503 192° South 415 478 27,800 1,790 Climbing Chicago Center
Tue 06:21:19 PM 40.9014 -88.1844 193° South 426 490 29,300 1,694 Climbing Chicago Center
Tue 06:22:21 PM 40.7828 -88.2183 192° South 435 501 31,300 1,887 Climbing Chicago Center
Tue 06:23:23 PM 40.6661 -88.2511 192° South 433 498 33,200 1,824 Climbing Chicago Center
Tue 06:24:26 PM 40.5503 -88.2828 192° South 427 491 35,100 1,839 Climbing Chicago Center
Tue 06:25:27 PM 40.4150 -88.3206 192° South 418 481 37,000 1,415 Climbing Chicago Center
Tue 06:26:29 PM 40.3069 -88.3539 193° South 405 466 38,000 484 Climbing Chicago Center
Tue 06:27:31 PM 40.2106 -88.4278 210° Southwest 400 460 38,000  Level Chicago Center
Tue 06:28:33 PM 40.1086 -88.5014 209° Southwest 400 460 38,000  Level Chicago Center
Tue 06:29:35 PM 40.0122 -88.5747 210° Southwest 400 460 38,000  Level Chicago Center
Tue 06:30:37 PM 39.9147 -88.6439 209° Southwest 397 457 38,000  Level Chicago Center
Tue 06:31:44 PM 39.7969 -88.7300 209° Southwest 398 458 38,000  Level Kansas Center
Tue 06:32:47 PM 39.6997 -88.8025 210° Southwest 401 461 38,000  Level Kansas Center
Tue 06:33:49 PM 39.6006 -88.8747 209° Southwest 405 466 38,000  Level Kansas Center
Tue 06:34:48 PM 39.5000 -88.9475 209° Southwest 410 472 38,000  Level Kansas Center
Tue 06:35:51 PM 39.4053 -89.0169 210° Southwest 409 471 38,000  Level Kansas Center
Tue 06:36:53 PM 39.3042 -89.0889 209° Southwest 413 475 38,000  Level Kansas Center
Tue 06:37:54 PM 39.1836 -89.1764 209° Southwest 414 476 38,000  Level Kansas Center
Tue 06:38:58 PM 39.0811 -89.2492 209° Southwest 413 475 38,000  Level Kansas Center
Tue 06:40:01 PM 38.9728 -89.3267 209° Southwest 413 475 38,000  Level Kansas Center
Tue 06:41:01 PM 38.8728 -89.3975 209° Southwest 409 471 38,000  Level Kansas Center
Tue 06:42:01 PM 38.7658 -89.4744 209° Southwest 409 471 38,000  Level Kansas Center
Tue 06:43:06 PM 38.6656 -89.5444 209° Southwest 409 471 38,000  Level Kansas Center
Tue 06:44:06 PM 38.5661 -89.6147 209° Southwest 407 468 38,000  Level Kansas Center
Tue 06:45:07 PM 38.4606 -89.6869 208° Southwest 410 472 38,000  Level Kansas Center
Tue 06:46:09 PM 38.3567 -89.7603 209° Southwest 409 471 38,000  Level Kansas Center
Tue 06:47:12 PM 38.2558 -89.8314 209° Southwest 413 475 38,000  Level Kansas Center
Tue 06:48:15 PM 38.1475 -89.9058 208° Southwest 411 473 38,000  Level Kansas Center
Tue 06:49:16 PM 38.0458 -89.9783 209° Southwest 419 482 38,000  Level Kansas Center
Tue 06:50:17 PM 37.9450 -90.0475 208° Southwest 414 476 38,000  Level Kansas Center
Tue 06:51:18 PM 37.8528 -90.1089 208° Southwest 416 479 38,000  Level Kansas Center
Tue 06:52:22 PM 37.7503 -90.1825 210° Southwest 419 482 38,000  Level Kansas Center
Tue 06:53:22 PM 37.6256 -90.2594 206° Southwest 419 482 38,000  Level Kansas Center
Tue 06:54:26 PM 37.5153 -90.3100 200° South 421 484 38,000  Level Kansas Center
Tue 06:55:27 PM 37.4058 -90.3606 200° South 420 483 38,000  Level Kansas Center
Tue 06:56:32 PM 37.2861 -90.4194 201° Southwest 423 487 38,000  Level Memphis Center
Tue 06:57:32 PM 37.1756 -90.4714 201° Southwest 428 493 38,000  Level Memphis Center
Tue 06:58:32 PM 37.0653 -90.5258 202° Southwest 428 493 38,000  Level Memphis Center
Tue 06:59:32 PM 36.9525 -90.5775 200° South 433 498 38,000  Level Memphis Center
Tue 07:00:32 PM 36.8419 -90.6264 199° South 433 498 38,000  Level Memphis Center
Tue 07:01:32 PM 36.7314 -90.6753 200° South 433 498 38,000  Level Memphis Center
Tue 07:02:32 PM 36.6189 -90.7267 200° South 433 498 38,000  Level Memphis Center
Tue 07:03:32 PM 36.5103 -90.7778 201° Southwest 433 498 38,000  Level Memphis Center
Tue 07:04:32 PM 36.3953 -90.8286 200° South 433 498 38,000  Level Memphis Center
Tue 07:05:32 PM 36.2847 -90.8769 199° South 433 498 38,000  Level Memphis Center
Tue 07:06:32 PM 36.1739 -90.9278 200° South 433 498 38,000  Level Memphis Center
Tue 07:07:32 PM 36.0717 -90.9861 205° Southwest 427 491 38,000  Level Memphis Center
Tue 07:08:32 PM 35.9794 -91.0675 216° Southwest 417 480 38,000  Level Memphis Center
Tue 07:09:32 PM 35.8872 -91.1461 215° Southwest 417 480 38,000  Level Memphis Center
Tue 07:10:32 PM 35.7908 -91.2297 215° Southwest 417 480 38,000  Level Memphis Center
Tue 07:11:32 PM 35.6983 -91.3106 215° Southwest 417 480 38,000  Level Memphis Center
Tue 07:12:32 PM 35.6039 -91.3989 217° Southwest 407 468 38,000  Level Memphis Center
Tue 07:13:32 PM 35.5092 -91.4767 214° Southwest 407 468 38,000  Level Memphis Center
Tue 07:14:32 PM 35.4167 -91.5544 214° Southwest 407 468 38,000  Level Memphis Center
Tue 07:15:32 PM 35.3222 -91.6344 215° Southwest 407 468 38,000  Level Memphis Center
Tue 07:16:32 PM 35.2294 -91.7144 215° Southwest 407 468 38,000  Level Memphis Center
Tue 07:17:32 PM 35.1369 -91.7942 215° Southwest 407 468 38,000  Level Memphis Center
Tue 07:18:32 PM 35.0506 -91.8689 215° Southwest 400 460 38,000  Level Memphis Center
Tue 07:19:32 PM 34.9433 -91.9150 199° South 395 455 38,000  Level Memphis Center
Tue 07:20:32 PM 34.8325 -91.9458 193° South 401 461 38,000  Level Memphis Center
Tue 07:21:32 PM 34.7194 -91.9767 193° South 406 467 38,000  Level Memphis Center
Tue 07:22:32 PM 34.6128 -92.0000 190° South 406 467 38,000  Level Memphis Center
Tue 07:23:32 PM 34.5017 -92.0331 194° South 411 473 38,000  Level Memphis Center
Tue 07:24:32 PM 34.3928 -92.0611 192° South 411 473 38,000  Level Memphis Center
Tue 07:25:32 PM 34.2819 -92.0892 192° South 411 473 38,000  Level Memphis Center
Tue 07:26:32 PM 34.1708 -92.1194 193° South 411 473 38,000  Level Memphis Center
Tue 07:28:56 PM 33.9206 -92.1850 192° South 404 465 38,000  Level Fort Center
Tue 07:29:56 PM 33.8069 -92.2167 193° South 416 479 38,000  Level Fort Center
Tue 07:30:56 PM 33.6956 -92.2458 192° South 416 479 38,000  Level Fort Center
Tue 07:31:56 PM 33.5839 -92.2725 191° South 416 479 38,000  Level Fort Center
Tue 07:32:56 PM 33.4864 -92.3353 208° Southwest 402 463 38,000  Level Fort Center
Tue 07:33:56 PM 33.3931 -92.4028 211° Southwest 402 463 38,000  Level Fort Center
Tue 07:34:56 PM 33.2958 -92.4756 212° Southwest 402 463 38,000  Level Fort Center
Tue 07:35:56 PM 33.2006 -92.5478 212° Southwest 407 468 38,000  Level Fort Center
Tue 07:36:56 PM 33.1053 -92.6200 212° Southwest 407 468 38,000  Level Fort Center
Tue 07:37:56 PM 33.0097 -92.6919 212° Southwest 407 468 38,000  Level Fort Center
Tue 07:38:56 PM 32.9122 -92.7614 211° Southwest 407 468 38,000  Level Fort Center
Tue 07:39:56 PM 32.8067 -92.8411 212° Southwest 412 474 38,000  Level Fort Center
Tue 07:40:56 PM 32.7111 -92.9128 212° Southwest 412 474 38,000  Level Fort Center
Tue 07:41:56 PM 32.6136 -92.9842 212° Southwest 412 474 38,000  Level Fort Center
Tue 07:42:56 PM 32.5158 -93.0553 212° Southwest 417 480 38,000  Level Fort Center
Tue 07:43:56 PM 32.4181 -93.1264 212° Southwest 417 480 38,000  Level Fort Center
Tue 07:44:56 PM 32.3203 -93.1975 212° Southwest 417 480 38,000  Level Fort Center
Tue 07:45:56 PM 32.2244 -93.2683 212° Southwest 412 474 38,000  Level Fort Center
Tue 07:47:59 PM 32.0394 -93.4114 213° Southwest 407 468 38,000  Level Houston Center
Tue 07:49:01 PM 31.9447 -93.4772 211° Southwest 400 460 38,000  Level Houston Center
Tue 07:50:02 PM 31.8294 -93.5625 212° Southwest 407 468 38,000  Level Houston Center
Tue 07:51:04 PM 31.7322 -93.6328 212° Southwest 403 464 38,000  Level Houston Center
Tue 07:52:06 PM 31.6356 -93.7022 211° Southwest 403 464 38,000  Level Houston Center
Tue 07:53:08 PM 31.5394 -93.7708 211° Southwest 403 464 38,000  Level Houston Center
Tue 07:54:10 PM 31.4447 -93.8403 212° Southwest 399 459 38,000  Level Houston Center
Tue 07:55:12 PM 31.3497 -93.9072 211° Southwest 396 456 38,000 -439 Level Houston Center
Tue 07:56:13 PM 31.2553 -93.9758 212° Southwest 396 456 37,100 -1,366 Descending Houston Center
Tue 07:57:15 PM 31.1561 -94.0458 211° Southwest 408 470 35,200 -1,694 Descending Houston Center
Tue 07:58:17 PM 31.0381 -94.1303 212° Southwest 412 474 33,600 -2,032 Descending Houston Center
Tue 07:59:19 PM 30.9436 -94.1983 212° Southwest 411 473 31,000 -2,419 Descending Houston Center
Tue 08:00:21 PM 30.8453 -94.2678 211° Southwest 402 463 28,600 -2,244 Descending Houston Center
Tue 08:01:22 PM 30.7522 -94.3336 211° Southwest 394 453 26,400 -2,098 Descending Houston Center
Tue 08:02:24 PM 30.6697 -94.3928 212° Southwest 378 435 24,300 -2,259 Descending Houston Center
Tue 08:02:47 PM 30.6244 -94.4250 211° Southwest 366 421 23,200 -2,129 Descending Houston Center
Tue 08:03:26 PM 30.5839 -94.4531 211° Southwest 365 420 22,100 -2,127 Descending Houston Center
Tue 08:04:06 PM 30.5125 -94.5028 211° Southwest 353 406 20,400 -2,066 Descending Houston Center
Tue 08:04:27 PM 30.4953 -94.5178 217° Southwest 351 404 20,000 -2,239 Descending Houston Center
Tue 08:05:13 PM 30.4439 -94.5989 234° Southwest 330 380 17,900 -2,323 Descending Houston Center
Tue 08:05:29 PM 30.4333 -94.6158 234° Southwest 332 382 17,600 -1,855 Descending Houston Center
Tue 08:06:08 PM 30.3944 -94.6733 232° Southwest 320 368 16,200 -1,839 Descending Houston Center
Tue 08:06:31 PM 30.3794 -94.6969 234° Southwest 321 369 15,700 -2,066 Descending Houston Center
Tue 08:07:09 PM 30.3414 -94.7550 233° Southwest 312 359 14,100 -2,066 Descending Houston Center
Tue 08:07:32 PM 30.3281 -94.7781 236° Southwest 312 359 13,600 -1,082 Descending Houston Center
Tue 08:08:10 PM 30.2900 -94.8342 232° Southwest 307 353 13,000 -484 Descending Houston Center
Tue 08:08:34 PM 30.2772 -94.8561 236° Southwest 306 352 13,100  Climbing Houston Center
Tue 08:09:11 PM 30.2389 -94.9133 232° Southwest 308 354 13,000 -290 Descending Houston Center
Tue 08:09:36 PM 30.2258 -94.9356 236° Southwest 308 354 12,800 -968 Descending Houston Center
Tue 08:10:13 PM 30.1878 -94.9947 233° Southwest 310 357 12,000 -885 Descending Houston Center
Tue 08:10:37 PM 30.1742 -95.0153 233° Southwest 311 358 11,900 -982 Descending Houston Center
Tue 08:11:08 PM 30.1378 -95.0661 230° Southwest 306 352 11,100 -1,065 Descending Houston Center
Tue 08:11:39 PM 30.0983 -95.0869 205° Southwest 294 338 10,800 -787 Descending Houston Center
Tue 08:12:09 PM 30.0572 -95.1050 201° Southwest 296 341 10,300 -677 Descending Houston Center
Tue 08:12:41 PM 30.0203 -95.1211 201° Southwest 299 344 10,100 -295 Descending Houston Center
Tue 08:13:10 PM 29.9786 -95.1389 200° South 297 342 10,000 -98 Descending Houston Center
Tue 08:13:42 PM 29.9439 -95.1539 201° Southwest 294 338 10,000  Level Houston Center
Tue 08:14:11 PM 29.9036 -95.1697 199° South 250 288 10,000 -484 Level Houston Center
Tue 08:14:44 PM 29.8769 -95.1822 202° Southwest 259 298 9,500 -1,075 Descending Houston Center
Tue 08:15:18 PM 29.8372 -95.1997 201° Southwest 234 269 8,800 -984 Descending Houston Center
Tue 08:15:45 PM 29.8172 -95.2081 200° South 232 267 8,500 -984 Descending Houston Center
Tue 08:16:19 PM 29.7767 -95.2264 201° Southwest 222 255 7,800 -1,065 Descending Houston Center
Tue 08:16:47 PM 29.7600 -95.2328 198° South 224 258 7,400 -982 Descending Houston Center
Tue 08:17:14 PM 29.7239 -95.2472 199° South 217 250 6,900 -774 Descending Houston Center
Tue 08:17:49 PM 29.7067 -95.2614 216° Southwest 222 255 6,600 -885 Descending Houston Center
Tue 08:18:15 PM 29.7086 -95.3092 273° West 250 288 6,000 -1,180 Descending Houston Center
Tue 08:18:50 PM 29.7181 -95.3525 284° West 246 283 5,400 -1,082 Descending Houston Center
Tue 08:19:16 PM 29.7197 -95.3847 273° West 241 277 4,900 -1,065 Descending Houston Center
Tue 08:19:52 PM 29.7225 -95.4297 274° West 244 281 4,300 -984 Descending Houston Center
Tue 08:20:17 PM 29.7375 -95.4644 296° West 250 288 3,900 -1,065 Descending Houston Center
Tue 08:20:54 PM 29.7717 -95.4706 351° North 262 302 3,200 -1,574 Descending Houston Center
Tue 08:21:18 PM 29.7881 -95.4417 57° Northeast 240 276 2,300 -1,279 Descending Houston Center
Tue 08:21:55 PM 29.7689 -95.4211 137° Southeast 223 257 1,900 -290 Descending Houston Center
Tue 08:22:20 PM 29.7489 -95.4031 142° Southeast 164 189 2,000 97 Climbing Houston Center
Tue 08:22:57 PM 29.7331 -95.3853 136° Southeast 188 216 2,000 -182 Level Houston Center
Tue 08:23:26 PM 29.7133 -95.3592 131° Southeast 159 183 1,800 -484 Descending Houston Center
Tue 08:23:59 PM 29.7025 -95.3475 137° Southeast 172 198 1,500 -643 Descending Houston Center
Tue 08:24:22 PM 29.6897 -95.3331 136° Southeast 129 148 1,200 -787 Descending Houston Center
Tue 08:25:00 PM 29.6733 -95.3128 133° Southeast 146 168 700 -716 Descending Houston Center
Tue 08:25:29 PM 29.6617 -95.3003 137° Southeast 127 146 400 -621 Descending Houston Center

Login

Don't have an account? Register now (free) for customized features, flight alerts, and more!